Wessington Springs, South Dakota
Current Conditions -  °F | °C
As of 11:55 AM on Thursday 29 Jan 2015 (Local Time) from KHON Reporting Station
Overcast Overcast  
Wind Chill: 17°   Ceiling: 2300
Heat Index: 30°   Visibility: 10mi
Dew Point: 20°   Wind: 22mph
Humidity: 66%   Direction: 330°NNW
Pressure: 30.47"   Gusts: 30mph
Location:  44.08°N, 98.57°W
Report Text: KHON 291755Z AUTO 33019G26KT 10SM OVC023 M01/M07 A3047 RMK AO2 PK WND 33026/1747 SLP334 T10111067 10000 21011 51025
Loading
Personal Weather Stations






























Interactive Weather Map New forecast layout! Learn more

10-Day Weather Forecast

Advertisements
Track Severe Weather on mobile